createdAt,value
2023-03-01T00:01:30.757Z,94656.34
2023-03-01T00:03:58.709Z,94657.03
2023-03-01T00:06:26.638Z,94657.81
2023-03-01T00:08:53.616Z,94648.84
2023-03-01T00:11:20.270Z,94643.47
2023-03-01T00:13:48.882Z,94639.72
2023-03-01T00:16:18.188Z,94636.91
2023-03-01T00:18:45.265Z,94627.66
2023-03-01T00:21:12.159Z,94643.75
2023-03-01T00:23:39.339Z,94651.91
2023-03-01T00:26:14.543Z,94652.47
2023-03-01T00:28:41.827Z,94650.72
2023-03-01T00:31:11.055Z,94650.72
2023-03-01T00:33:37.848Z,94659.31
2023-03-01T00:36:05.030Z,94646.41
2023-03-01T00:38:31.963Z,94652.59
2023-03-01T00:41:10.883Z,94657.97
2023-03-01T00:43:38.692Z,94647.75
2023-03-01T00:46:08.234Z,94650.84
2023-03-01T00:48:35.351Z,94646.97
2023-03-01T00:51:11.553Z,94641.47
2023-03-01T00:53:38.501Z,94628.84
2023-03-01T00:56:06.790Z,94636.34
2023-03-01T00:58:33.506Z,94629.53
2023-03-01T01:01:00.514Z,94624.19
2023-03-01T01:03:27.423Z,94619.88
2023-03-01T01:05:54.601Z,94619.59
2023-03-01T01:08:21.905Z,94610.63
2023-03-01T01:10:48.882Z,94600.94
2023-03-01T01:13:15.813Z,94603.09
2023-03-01T01:15:42.515Z,94606.47
2023-03-01T01:18:09.455Z,94604.72
2023-03-01T01:20:37.732Z,94613.16
2023-03-01T01:23:06.936Z,94617.19
2023-03-01T01:25:36.964Z,94616.94
2023-03-01T01:28:03.971Z,94621.34
2023-03-01T01:30:30.694Z,94616.66
2023-03-01T01:32:57.453Z,94621.75
2023-03-01T01:35:24.177Z,94612.63
2023-03-01T01:37:50.938Z,94604.88
2023-03-01T01:40:17.709Z,94589.59
2023-03-01T01:42:44.465Z,94587.41
2023-03-01T01:45:32.461Z,94581.94
2023-03-01T01:48:03.397Z,94574.81
2023-03-01T01:50:38.907Z,94574.81
2023-03-01T01:53:08.614Z,94558.75
2023-03-01T01:55:37.278Z,94560.63
2023-03-01T01:58:06.956Z,94559.56
2023-03-01T02:00:33.701Z,94552.84
2023-03-01T02:03:11.086Z,94553.78
2023-03-01T02:05:41.059Z,94527.66
2023-03-01T02:08:09.578Z,94544.53
2023-03-01T02:10:36.542Z,94544.28
2023-03-01T02:13:04.371Z,94546.56
2023-03-01T02:15:35.350Z,94552.59
2023-03-01T02:18:03.367Z,94541.19
2023-03-01T02:20:42.020Z,94553.13
2023-03-01T02:23:09.341Z,94547.63
2023-03-01T02:25:58.820Z,94547.66
2023-03-01T02:28:35.155Z,94551.81
2023-03-01T02:31:21.465Z,94546.94
2023-03-01T02:33:49.565Z,94536.91
2023-03-01T02:36:56.289Z,94539.44
2023-03-01T02:39:27.584Z,94542.00
2023-03-01T02:41:56.266Z,94538.50
2023-03-01T02:44:23.776Z,94541.44
2023-03-01T02:46:53.083Z,94534.63
2023-03-01T02:49:31.839Z,94543.75
2023-03-01T02:52:29.856Z,94539.19
2023-03-01T02:55:00.911Z,94535.97
2023-03-01T02:57:29.109Z,94538.41
2023-03-01T02:59:56.571Z,94533.28
2023-03-01T03:02:37.731Z,94536.25
2023-03-01T03:05:10.923Z,94536.63
2023-03-01T03:07:39.942Z,94537.03
2023-03-01T03:10:10.083Z,94529.81
2023-03-01T03:12:36.777Z,94530.63
2023-03-01T03:15:09.869Z,94526.88
2023-03-01T03:17:40.573Z,94528.44
2023-03-01T03:20:12.380Z,94538.09
2023-03-01T03:22:41.038Z,94521.63
2023-03-01T03:25:12.053Z,94520.69
2023-03-01T03:27:39.640Z,94519.47
2023-03-01T03:30:13.403Z,94518.00
2023-03-01T03:32:40.883Z,94520.91
2023-03-01T03:35:12.793Z,94513.50
2023-03-01T03:37:59.796Z,94501.97
2023-03-01T03:40:27.679Z,94496.72
2023-03-01T03:42:54.452Z,94491.31
2023-03-01T03:45:21.167Z,94499.97
2023-03-01T03:47:47.986Z,94496.25
2023-03-01T03:50:16.354Z,94498.41
2023-03-01T03:52:43.658Z,94487.13
2023-03-01T03:55:11.947Z,94486.88
2023-03-01T03:57:42.759Z,94492.91
2023-03-01T04:00:13.941Z,94499.47
2023-03-01T04:02:41.816Z,94503.50
2023-03-01T04:05:10.389Z,94507.28
2023-03-01T04:07:37.782Z,94507.38
2023-03-01T04:10:10.549Z,94507.25
2023-03-01T04:12:37.346Z,94501.22
2023-03-01T04:15:14.210Z,94498.84
2023-03-01T04:17:42.569Z,94507.41
2023-03-01T04:20:25.682Z,94498.16
2023-03-01T04:23:11.806Z,94494.00
2023-03-01T04:25:55.743Z,94501.34
2023-03-01T04:28:25.685Z,94496.53
2023-03-01T04:30:54.241Z,94494.50
2023-03-01T04:33:21.520Z,94492.09
2023-03-01T04:35:50.470Z,94486.09
2023-03-01T04:38:21.180Z,94488.91
2023-03-01T04:40:48.708Z,94490.13
2023-03-01T04:43:15.850Z,94484.63
2023-03-01T04:45:43.027Z,94483.59
2023-03-01T04:48:10.234Z,94483.19
2023-03-01T04:50:37.042Z,94489.34
2023-03-01T04:53:03.913Z,94491.22
2023-03-01T04:55:30.968Z,94495.50
2023-03-01T04:57:57.740Z,94487.06
2023-03-01T05:00:25.001Z,94492.56
2023-03-01T05:03:00.977Z,94491.38
2023-03-01T05:05:37.312Z,94493.50
2023-03-01T05:08:06.898Z,94493.63
2023-03-01T05:10:36.238Z,94497.66
2023-03-01T05:13:04.295Z,94493.66
2023-03-01T05:15:32.778Z,94491.50
2023-03-01T05:18:00.737Z,94479.84
2023-03-01T05:20:28.466Z,94492.59
2023-03-01T05:23:00.399Z,94495.94
2023-03-01T05:25:27.782Z,94501.94
2023-03-01T05:27:54.444Z,94497.50
2023-03-01T05:30:21.138Z,94499.81
2023-03-01T05:32:50.771Z,94490.16
2023-03-01T05:35:18.989Z,94494.06
2023-03-01T05:37:47.486Z,94491.22
2023-03-01T05:40:17.208Z,94497.13
2023-03-01T05:42:49.152Z,94495.25
2023-03-01T05:45:16.990Z,94492.03
2023-03-01T05:47:45.302Z,94494.28
2023-03-01T05:50:19.598Z,94501.66
2023-03-01T05:52:56.242Z,94497.41
2023-03-01T05:55:23.015Z,94494.28
2023-03-01T05:57:51.010Z,94490.94
2023-03-01T06:00:19.981Z,94494.44
2023-03-01T06:02:46.820Z,94491.22
2023-03-01T06:05:14.460Z,94493.78
2023-03-01T06:07:41.785Z,94496.06
2023-03-01T06:10:11.058Z,94496.72
2023-03-01T06:12:38.612Z,94500.88
2023-03-01T06:15:06.659Z,94505.28
2023-03-01T06:17:38.439Z,94494.72
2023-03-01T06:20:07.420Z,94497.78
2023-03-01T06:22:34.384Z,94500.69
2023-03-01T06:25:01.214Z,94495.63
2023-03-01T06:27:27.956Z,94506.06
2023-03-01T06:29:55.001Z,94516.63
2023-03-01T06:32:21.880Z,94509.44
2023-03-01T06:34:48.593Z,94518.19
2023-03-01T06:37:15.353Z,94514.31
2023-03-01T06:39:42.111Z,94525.06
2023-03-01T06:42:11.126Z,94512.06
2023-03-01T06:44:38.577Z,94506.88
2023-03-01T06:47:05.883Z,94510.91
2023-03-01T06:49:32.741Z,94512.41
2023-03-01T06:51:59.763Z,94511.06
2023-03-01T06:54:26.550Z,94519.19
2023-03-01T06:56:53.501Z,94513.06
2023-03-01T06:59:20.596Z,94521.91
2023-03-01T07:01:47.445Z,94522.88
2023-03-01T07:04:14.866Z,94520.72
2023-03-01T07:06:41.991Z,94511.31
2023-03-01T07:09:08.786Z,94517.22
2023-03-01T07:11:35.637Z,94521.63
2023-03-01T07:14:02.269Z,94527.69
2023-03-01T07:16:29.176Z,94533.25
2023-03-01T07:18:55.978Z,94528.38
2023-03-01T07:21:22.750Z,94522.94
2023-03-01T07:23:50.113Z,94524.88
2023-03-01T07:26:16.940Z,94516.53
2023-03-01T07:28:43.621Z,94519.66
2023-03-01T07:31:10.338Z,94523.28
2023-03-01T07:33:37.026Z,94522.63
2023-03-01T07:36:04.748Z,94518.78
2023-03-01T07:38:31.940Z,94508.69
2023-03-01T07:41:03.041Z,94502.75
2023-03-01T07:43:31.008Z,94503.72
2023-03-01T07:46:04.333Z,94517.81
2023-03-01T07:48:32.297Z,94516.88
2023-03-01T07:51:00.817Z,94515.72
2023-03-01T07:53:27.665Z,94525.84
2023-03-01T07:56:14.389Z,94529.44
2023-03-01T07:58:42.827Z,94522.91
2023-03-01T08:01:11.810Z,94516.25
2023-03-01T08:03:39.039Z,94517.44
2023-03-01T08:06:07.914Z,94518.91
2023-03-01T08:08:35.306Z,94523.13
2023-03-01T08:11:03.637Z,94510.31
2023-03-01T08:13:30.956Z,94503.72
2023-03-01T08:16:08.663Z,94526.19
2023-03-01T08:18:35.574Z,94530.31
2023-03-01T08:21:09.462Z,94534.69
2023-03-01T08:23:36.313Z,94520.47
2023-03-01T08:26:10.496Z,94525.84
2023-03-01T08:28:37.883Z,94523.59
2023-03-01T08:31:14.091Z,94529.03
2023-03-01T08:33:40.914Z,94525.66
2023-03-01T08:36:08.090Z,94526.81
2023-03-01T08:38:35.818Z,94526.50
2023-03-01T08:41:03.784Z,94513.03
2023-03-01T08:43:31.060Z,94520.88
2023-03-01T08:45:57.874Z,94524.47
2023-03-01T08:48:24.686Z,94519.97
2023-03-01T08:50:51.950Z,94527.78
2023-03-01T08:53:18.774Z,94524.38
2023-03-01T08:55:45.479Z,94521.50
2023-03-01T08:58:12.498Z,94525.00
2023-03-01T09:00:39.659Z,94524.31
2023-03-01T09:03:06.316Z,94522.91
2023-03-01T09:05:34.359Z,94517.81
2023-03-01T09:08:01.342Z,94519.16
2023-03-01T09:10:28.176Z,94516.03
2023-03-01T09:12:54.945Z,94529.25
2023-03-01T09:15:21.667Z,94524.56
2023-03-01T09:17:48.508Z,94517.09
2023-03-01T09:20:15.292Z,94510.00
2023-03-01T09:22:42.042Z,94504.78
2023-03-01T09:25:09.010Z,94500.66
2023-03-01T09:27:35.777Z,94502.97
2023-03-01T09:30:02.980Z,94502.88
2023-03-01T09:32:32.093Z,94502.50
2023-03-01T09:35:05.958Z,94500.66
2023-03-01T09:37:36.481Z,94510.53
2023-03-01T09:40:07.648Z,94494.69
2023-03-01T09:42:36.336Z,94514.69
2023-03-01T09:45:08.467Z,94502.19
2023-03-01T09:47:36.278Z,94496.78
2023-03-01T09:50:18.065Z,94492.78
2023-03-01T09:52:52.342Z,94491.50
2023-03-01T09:55:30.614Z,94494.34
2023-03-01T09:58:01.165Z,94484.94
2023-03-01T10:00:30.699Z,94486.66
2023-03-01T10:03:22.342Z,94488.72
2023-03-01T10:06:06.583Z,94471.03
2023-03-01T10:08:37.491Z,94475.97
2023-03-01T10:11:06.279Z,94474.16
2023-03-01T10:13:50.202Z,94468.44
2023-03-01T10:16:22.701Z,94474.66
2023-03-01T10:19:02.011Z,94457.78
2023-03-01T10:21:30.952Z,94467.72
2023-03-01T10:24:06.322Z,94457.75
2023-03-01T10:26:51.406Z,94467.81
2023-03-01T10:29:18.219Z,94457.56
2023-03-01T10:31:48.464Z,94458.09
2023-03-01T10:34:20.838Z,94453.63
2023-03-01T10:36:57.915Z,94446.44
2023-03-01T10:39:26.440Z,94458.16
2023-03-01T10:42:20.553Z,94444.94
2023-03-01T10:44:50.561Z,94451.72
2023-03-01T10:47:24.488Z,94438.22
2023-03-01T10:49:54.691Z,94438.63
2023-03-01T10:52:24.835Z,94429.44
2023-03-01T10:54:57.791Z,94428.03
2023-03-01T10:57:42.320Z,94414.44
2023-03-01T11:00:20.533Z,94415.13
2023-03-01T11:02:53.056Z,94407.41
2023-03-01T11:05:25.103Z,94410.09
2023-03-01T11:07:59.089Z,94413.66
2023-03-01T11:10:27.134Z,94425.47
2023-03-01T11:12:54.722Z,94421.75
2023-03-01T11:15:27.772Z,94424.69
2023-03-01T11:18:05.750Z,94427.84
2023-03-01T11:20:40.156Z,94428.59
2023-03-01T11:23:16.715Z,94435.28
2023-03-01T11:25:45.494Z,94436.66
2023-03-01T11:28:17.457Z,94438.69
2023-03-01T11:31:07.624Z,94447.34
2023-03-01T11:34:00.771Z,94450.38
2023-03-01T11:36:37.095Z,94441.19
2023-03-01T11:39:15.165Z,94433.91
2023-03-01T11:41:42.553Z,94443.31
2023-03-01T11:44:25.967Z,94451.00
2023-03-01T11:47:13.450Z,94453.09
2023-03-01T11:50:12.616Z,94457.06
2023-03-01T11:53:11.142Z,94448.44
2023-03-01T11:56:05.427Z,94445.31
2023-03-01T11:58:41.200Z,94457.34
2023-03-01T12:01:32.973Z,94455.75
2023-03-01T12:04:11.723Z,94451.53
2023-03-01T12:06:50.546Z,94443.78
2023-03-01T12:09:26.221Z,94454.47
2023-03-01T12:12:10.940Z,94461.25
2023-03-01T12:14:50.566Z,94470.59
2023-03-01T12:17:23.396Z,94470.13
2023-03-01T12:20:15.617Z,94454.50
2023-03-01T12:22:55.216Z,94442.91
2023-03-01T12:25:29.384Z,94432.25
2023-03-01T12:28:14.900Z,94415.63
2023-03-01T12:31:02.000Z,94414.50
2023-03-01T12:33:35.380Z,94402.19
2023-03-01T12:36:33.435Z,94403.06
2023-03-01T12:39:38.531Z,94396.09
2023-03-01T12:42:31.115Z,94398.88
2023-03-01T12:45:36.286Z,94387.94
2023-03-01T12:48:16.864Z,94398.03
2023-03-01T12:50:44.236Z,94400.97
2023-03-01T12:53:23.231Z,94380.88
2023-03-01T12:55:50.436Z,94381.44
2023-03-01T12:58:47.236Z,94380.31
2023-03-01T13:01:54.869Z,94378.72
2023-03-01T13:04:46.770Z,94379.88
2023-03-01T13:07:35.961Z,94368.97
2023-03-01T13:10:21.489Z,94372.97
2023-03-01T13:12:53.373Z,94363.94
2023-03-01T13:15:23.143Z,94359.00
2023-03-01T13:17:52.026Z,94361.56
2023-03-01T13:20:21.574Z,94355.53
2023-03-01T13:22:54.768Z,94355.75
2023-03-01T13:25:24.341Z,94355.31
2023-03-01T13:27:52.805Z,94352.91
2023-03-01T13:30:34.895Z,94359.75
2023-03-01T13:33:31.267Z,94336.59
2023-03-01T13:36:01.597Z,94350.19
2023-03-01T13:38:48.050Z,94334.94
2023-03-01T13:41:25.607Z,94338.88
2023-03-01T13:43:52.356Z,94334.19
2023-03-01T13:46:22.034Z,94341.78
2023-03-01T13:48:55.092Z,94337.97
2023-03-01T13:51:36.313Z,94342.50
2023-03-01T13:54:03.030Z,94334.84
2023-03-01T13:56:34.623Z,94328.09
2023-03-01T13:59:05.751Z,94326.22
2023-03-01T14:01:37.384Z,94327.00
2023-03-01T14:04:16.009Z,94321.88
2023-03-01T14:06:42.843Z,94330.00
2023-03-01T14:09:25.128Z,94330.56
2023-03-01T14:12:10.791Z,94324.34
2023-03-01T14:14:41.682Z,94326.94
2023-03-01T14:17:32.398Z,94317.16
2023-03-01T14:20:02.351Z,94296.22
2023-03-01T14:22:35.039Z,94320.50
2023-03-01T14:25:41.464Z,94321.97
2023-03-01T14:28:25.632Z,94313.03
2023-03-01T14:30:54.326Z,94315.16
2023-03-01T14:33:24.215Z,94304.88
2023-03-01T14:36:02.989Z,94302.31
2023-03-01T14:38:47.505Z,94295.97
2023-03-01T14:41:17.838Z,94299.91
2023-03-01T14:43:48.736Z,94301.06
2023-03-01T14:46:20.240Z,94299.09
2023-03-01T14:48:50.652Z,94298.28
2023-03-01T14:51:17.457Z,94295.09
2023-03-01T14:53:51.033Z,94289.97
2023-03-01T14:56:18.809Z,94299.50
2023-03-01T14:58:45.566Z,94290.94
2023-03-01T15:01:15.441Z,94301.47
2023-03-01T15:03:44.980Z,94299.88
2023-03-01T15:06:15.335Z,94289.72
2023-03-01T15:08:51.870Z,94303.25
2023-03-01T15:11:30.931Z,94306.25
2023-03-01T15:13:58.223Z,94295.47
2023-03-01T15:16:28.626Z,94312.16
2023-03-01T15:19:04.450Z,94304.81
2023-03-01T15:21:39.505Z,94314.94
2023-03-01T15:24:21.841Z,94308.13
2023-03-01T15:26:55.344Z,94315.25
2023-03-01T15:29:34.587Z,94322.53
2023-03-01T15:32:07.350Z,94315.13
2023-03-01T15:34:35.956Z,94314.53
2023-03-01T15:37:06.627Z,94309.56
2023-03-01T15:39:44.687Z,94327.03
2023-03-01T15:42:34.602Z,94323.78
2023-03-01T15:45:11.498Z,94326.91
2023-03-01T15:47:40.610Z,94335.47
2023-03-01T15:50:34.244Z,94329.81
2023-03-01T15:53:02.347Z,94325.69
2023-03-01T15:55:31.193Z,94328.66
2023-03-01T15:58:02.508Z,94331.59
2023-03-01T16:00:29.989Z,94330.00
2023-03-01T16:02:57.185Z,94330.84
2023-03-01T16:05:25.624Z,94336.97
2023-03-01T16:07:52.828Z,94318.38
2023-03-01T16:10:20.163Z,94310.63
2023-03-01T16:12:48.503Z,94313.16
2023-03-01T16:15:19.421Z,94309.16
2023-03-01T16:17:46.305Z,94314.38
2023-03-01T16:20:19.847Z,94309.59
2023-03-01T16:22:53.053Z,94312.69
2023-03-01T16:25:21.270Z,94310.72
2023-03-01T16:27:49.851Z,94311.88
2023-03-01T16:30:20.680Z,94309.56
2023-03-01T16:32:49.162Z,94310.00
2023-03-01T16:35:18.857Z,94316.50
2023-03-01T16:37:46.232Z,94313.53
2023-03-01T16:40:20.245Z,94320.09
2023-03-01T16:42:47.171Z,94313.75
2023-03-01T16:45:23.881Z,94319.16
2023-03-01T16:47:54.429Z,94317.94
2023-03-01T16:50:22.444Z,94313.59
2023-03-01T16:52:49.446Z,94320.22
2023-03-01T16:55:16.377Z,94315.50
2023-03-01T16:57:43.117Z,94320.56
2023-03-01T17:00:12.040Z,94316.03
2023-03-01T17:02:38.909Z,94323.56
2023-03-01T17:05:06.590Z,94328.97
2023-03-01T17:07:37.075Z,94323.53
2023-03-01T17:10:05.261Z,94327.09
2023-03-01T17:12:33.119Z,94335.75
2023-03-01T17:14:59.940Z,94331.72
2023-03-01T17:17:27.541Z,94339.47
2023-03-01T17:19:54.333Z,94338.00
2023-03-01T17:22:21.040Z,94337.13
2023-03-01T17:24:47.790Z,94345.06
2023-03-01T17:27:16.094Z,94343.41
2023-03-01T17:29:42.898Z,94345.31
2023-03-01T17:32:10.275Z,94342.56
2023-03-01T17:34:37.618Z,94338.84
2023-03-01T17:37:04.706Z,94340.97
2023-03-01T17:39:36.403Z,94340.00
2023-03-01T17:42:05.264Z,94337.00
2023-03-01T17:44:34.626Z,94338.84
2023-03-01T17:47:02.980Z,94343.38
2023-03-01T17:49:30.409Z,94342.38
2023-03-01T17:51:57.380Z,94335.97
2023-03-01T17:54:24.169Z,94344.34
2023-03-01T17:56:51.562Z,94340.59
2023-03-01T17:59:18.361Z,94347.34
2023-03-01T18:01:45.480Z,94337.06
2023-03-01T18:04:12.339Z,94335.84
2023-03-01T18:06:41.008Z,94337.81
2023-03-01T18:09:08.133Z,94342.88
2023-03-01T18:11:36.017Z,94342.09
2023-03-01T18:14:03.478Z,94343.16
2023-03-01T18:16:32.256Z,94345.22
2023-03-01T18:19:01.311Z,94339.97
2023-03-01T18:21:31.774Z,94328.59
2023-03-01T18:23:59.857Z,94341.72
2023-03-01T18:26:28.077Z,94341.25
2023-03-01T18:28:58.339Z,94337.69
2023-03-01T18:31:25.594Z,94348.56
2023-03-01T18:33:55.041Z,94346.16
2023-03-01T18:36:25.095Z,94340.22
2023-03-01T18:38:53.846Z,94342.31
2023-03-01T18:41:20.636Z,94336.69
2023-03-01T18:43:47.319Z,94347.91
2023-03-01T18:46:14.156Z,94353.03
2023-03-01T18:48:40.940Z,94353.31
2023-03-01T18:51:12.393Z,94355.25
2023-03-01T18:53:39.380Z,94352.34
2023-03-01T18:56:07.703Z,94353.78
2023-03-01T18:58:34.842Z,94347.84
2023-03-01T19:01:04.400Z,94343.97
2023-03-01T19:03:31.517Z,94352.59
2023-03-01T19:06:00.996Z,94352.72
2023-03-01T19:08:29.505Z,94356.50
2023-03-01T19:11:01.595Z,94348.88
2023-03-01T19:13:28.474Z,94355.94
2023-03-01T19:16:16.512Z,94349.66
2023-03-01T19:18:50.258Z,94350.25
2023-03-01T19:21:19.923Z,94346.72
2023-03-01T19:23:48.261Z,94349.03
2023-03-01T19:26:17.330Z,94350.97
2023-03-01T19:28:44.400Z,94354.34
2023-03-01T19:31:14.191Z,94344.97
2023-03-01T19:33:41.416Z,94346.06
2023-03-01T19:36:09.847Z,94343.34
2023-03-01T19:38:38.213Z,94338.38
2023-03-01T19:41:06.748Z,94328.44
2023-03-01T19:43:33.720Z,94330.53
2023-03-01T19:46:00.478Z,94337.25
2023-03-01T19:48:27.549Z,94335.97
2023-03-01T19:50:54.381Z,94336.88
2023-03-01T19:53:22.011Z,94335.34
2023-03-01T19:55:50.002Z,94338.84
2023-03-01T19:58:16.788Z,94335.66
2023-03-01T20:00:46.364Z,94337.56
2023-03-01T20:03:13.813Z,94335.72
2023-03-01T20:05:42.869Z,94339.38
2023-03-01T20:08:09.797Z,94336.63
2023-03-01T20:10:36.571Z,94349.38
2023-03-01T20:13:03.453Z,94344.88
2023-03-01T20:15:30.380Z,94347.13
2023-03-01T20:17:57.085Z,94349.03
2023-03-01T20:20:23.870Z,94348.63
2023-03-01T20:22:50.706Z,94342.84
2023-03-01T20:25:17.647Z,94344.69
2023-03-01T20:27:47.796Z,94347.91
2023-03-01T20:30:15.915Z,94353.44
2023-03-01T20:32:42.905Z,94347.03
2023-03-01T20:35:10.695Z,94341.44
2023-03-01T20:37:38.191Z,94341.59
2023-03-01T20:40:05.775Z,94334.59
2023-03-01T20:42:32.660Z,94339.81
2023-03-01T20:44:59.370Z,94328.41
2023-03-01T20:47:26.411Z,94333.31
2023-03-01T20:49:53.406Z,94339.50
2023-03-01T20:52:20.172Z,94342.06
2023-03-01T20:54:47.007Z,94342.72
2023-03-01T20:57:13.745Z,94337.25
2023-03-01T20:59:40.455Z,94341.53
2023-03-01T21:02:08.018Z,94337.16
2023-03-01T21:04:34.732Z,94342.03
2023-03-01T21:07:01.630Z,94337.03
2023-03-01T21:09:28.345Z,94338.09
2023-03-01T21:11:55.040Z,94339.13
2023-03-01T21:14:22.655Z,94342.13
2023-03-01T21:16:49.702Z,94340.38
2023-03-01T21:19:16.495Z,94336.34
2023-03-01T21:21:43.239Z,94331.22
2023-03-01T21:24:10.687Z,94339.84
2023-03-01T21:26:37.561Z,94335.88
2023-03-01T21:29:04.588Z,94352.03
2023-03-01T21:31:35.186Z,94344.38
2023-03-01T21:34:04.861Z,94342.09
2023-03-01T21:36:32.774Z,94342.41
2023-03-01T21:39:01.945Z,94329.56
2023-03-01T21:41:31.262Z,94340.50
2023-03-01T21:44:00.986Z,94326.44
2023-03-01T21:46:30.813Z,94326.53
2023-03-01T21:48:58.506Z,94326.41
2023-03-01T21:51:26.765Z,94325.03
2023-03-01T21:53:55.688Z,94327.16
2023-03-01T21:56:25.039Z,94319.28
2023-03-01T21:58:51.933Z,94322.97
2023-03-01T22:01:21.794Z,94321.66
2023-03-01T22:03:48.524Z,94323.16
2023-03-01T22:06:20.448Z,94313.19
2023-03-01T22:08:48.633Z,94319.78
2023-03-01T22:11:19.153Z,94321.44
2023-03-01T22:13:52.484Z,94321.06
2023-03-01T22:16:25.073Z,94321.06
2023-03-01T22:18:51.814Z,94316.28
2023-03-01T22:21:18.675Z,94322.75
2023-03-01T22:23:45.554Z,94304.84
2023-03-01T22:26:27.570Z,94312.56
2023-03-01T22:28:55.516Z,94309.59
2023-03-01T22:31:22.459Z,94324.16
2023-03-01T22:33:49.546Z,94317.19
2023-03-01T22:36:16.275Z,94312.81
2023-03-01T22:38:42.912Z,94319.66
2023-03-01T22:41:09.733Z,94308.88
2023-03-01T22:43:36.695Z,94311.41
2023-03-01T22:46:11.137Z,94301.69
2023-03-01T22:48:37.896Z,94311.50
2023-03-01T22:51:04.860Z,94315.56
2023-03-01T22:53:31.485Z,94313.34
2023-03-01T22:55:58.137Z,94312.69
2023-03-01T22:58:24.725Z,94314.47
2023-03-01T23:00:51.306Z,94305.34
2023-03-01T23:03:18.001Z,94302.44
2023-03-01T23:05:44.695Z,94306.31
2023-03-01T23:08:11.279Z,94298.94
2023-03-01T23:10:40.873Z,94297.00
2023-03-01T23:13:07.595Z,94295.53
2023-03-01T23:15:34.220Z,94293.31
2023-03-01T23:18:00.779Z,94303.56
2023-03-01T23:20:27.393Z,94302.25
2023-03-01T23:22:54.020Z,94304.66
2023-03-01T23:25:20.651Z,94296.00
2023-03-01T23:27:47.220Z,94293.00
2023-03-01T23:30:13.955Z,94302.31
2023-03-01T23:32:40.814Z,94298.50
2023-03-01T23:35:10.792Z,94303.03
2023-03-01T23:37:38.207Z,94301.22
2023-03-01T23:40:06.674Z,94293.22
2023-03-01T23:42:34.026Z,94307.41
2023-03-01T23:45:00.684Z,94299.75
2023-03-01T23:47:27.279Z,94303.00
2023-03-01T23:49:53.972Z,94306.84
2023-03-01T23:52:20.555Z,94309.53
2023-03-01T23:54:47.222Z,94298.69
2023-03-01T23:57:13.752Z,94299.81
2023-03-01T23:59:41.131Z,94294.25
